sensor_id;sensor_type;location;lat;lon;timestamp;P1;durP1;ratioP1;P2;durP2;ratioP2
49412;SDS011;35493;50.276;9.372;2023-03-20T00:02:31;6.90;;;3.70;;
49412;SDS011;35493;50.276;9.372;2023-03-20T00:05:13;7.30;;;4.30;;
49412;SDS011;35493;50.276;9.372;2023-03-20T00:07:49;8.13;;;3.60;;
49412;SDS011;35493;50.276;9.372;2023-03-20T00:10:25;6.47;;;4.15;;
49412;SDS011;35493;50.276;9.372;2023-03-20T00:13:02;7.18;;;4.10;;
49412;SDS011;35493;50.276;9.372;2023-03-20T00:15:36;7.80;;;3.67;;
49412;SDS011;35493;50.276;9.372;2023-03-20T00:18:14;7.32;;;3.50;;
49412;SDS011;35493;50.276;9.372;2023-03-20T00:20:51;6.88;;;3.55;;
49412;SDS011;35493;50.276;9.372;2023-03-20T00:23:24;6.32;;;3.40;;
49412;SDS011;35493;50.276;9.372;2023-03-20T00:25:58;5.07;;;3.45;;
49412;SDS011;35493;50.276;9.372;2023-03-20T00:28:28;6.97;;;3.67;;
49412;SDS011;35493;50.276;9.372;2023-03-20T00:31:14;7.35;;;3.20;;
49412;SDS011;35493;50.276;9.372;2023-03-20T00:33:53;7.32;;;3.53;;
49412;SDS011;35493;50.276;9.372;2023-03-20T00:36:27;8.43;;;3.88;;
49412;SDS011;35493;50.276;9.372;2023-03-20T00:39:02;6.30;;;3.60;;
49412;SDS011;35493;50.276;9.372;2023-03-20T00:41:37;5.40;;;3.47;;
49412;SDS011;35493;50.276;9.372;2023-03-20T00:44:19;8.68;;;3.95;;
49412;SDS011;35493;50.276;9.372;2023-03-20T00:46:55;7.10;;;3.58;;
49412;SDS011;35493;50.276;9.372;2023-03-20T00:49:34;6.60;;;3.85;;
49412;SDS011;35493;50.276;9.372;2023-03-20T00:52:09;7.88;;;4.07;;
49412;SDS011;35493;50.276;9.372;2023-03-20T00:54:43;6.10;;;3.83;;
49412;SDS011;35493;50.276;9.372;2023-03-20T00:57:18;8.15;;;4.10;;
49412;SDS011;35493;50.276;9.372;2023-03-20T00:59:55;6.88;;;3.63;;
49412;SDS011;35493;50.276;9.372;2023-03-20T01:02:31;6.13;;;3.90;;
49412;SDS011;35493;50.276;9.372;2023-03-20T01:05:07;9.20;;;3.78;;
49412;SDS011;35493;50.276;9.372;2023-03-20T01:07:40;6.30;;;3.78;;
49412;SDS011;35493;50.276;9.372;2023-03-20T01:10:15;8.20;;;3.97;;
49412;SDS011;35493;50.276;9.372;2023-03-20T01:12:49;9.52;;;4.63;;
49412;SDS011;35493;50.276;9.372;2023-03-20T01:15:24;6.63;;;4.15;;
49412;SDS011;35493;50.276;9.372;2023-03-20T01:18:02;6.80;;;3.92;;
49412;SDS011;35493;50.276;9.372;2023-03-20T01:20:38;8.05;;;4.30;;
49412;SDS011;35493;50.276;9.372;2023-03-20T01:23:11;7.43;;;3.67;;
49412;SDS011;35493;50.276;9.372;2023-03-20T01:25:45;8.07;;;3.83;;
49412;SDS011;35493;50.276;9.372;2023-03-20T01:28:19;8.30;;;4.32;;
49412;SDS011;35493;50.276;9.372;2023-03-20T01:30:53;6.65;;;3.67;;
49412;SDS011;35493;50.276;9.372;2023-03-20T01:33:27;8.80;;;3.90;;
49412;SDS011;35493;50.276;9.372;2023-03-20T01:36:03;6.75;;;4.10;;
49412;SDS011;35493;50.276;9.372;2023-03-20T01:38:37;9.45;;;4.38;;
49412;SDS011;35493;50.276;9.372;2023-03-20T01:41:14;7.18;;;3.83;;
49412;SDS011;35493;50.276;9.372;2023-03-20T01:43:49;7.65;;;4.60;;
49412;SDS011;35493;50.276;9.372;2023-03-20T01:46:24;9.07;;;4.85;;
49412;SDS011;35493;50.276;9.372;2023-03-20T01:52:19;11.07;;;4.15;;
49412;SDS011;35493;50.276;9.372;2023-03-20T01:54:59;8.07;;;4.45;;
49412;SDS011;35493;50.276;9.372;2023-03-20T01:57:36;7.38;;;4.30;;
49412;SDS011;35493;50.276;9.372;2023-03-20T02:00:10;8.32;;;4.22;;
49412;SDS011;35493;50.276;9.372;2023-03-20T02:02:47;8.15;;;4.43;;
49412;SDS011;35493;50.276;9.372;2023-03-20T02:05:39;8.10;;;4.28;;
49412;SDS011;35493;50.276;9.372;2023-03-20T02:08:20;6.63;;;3.53;;
49412;SDS011;35493;50.276;9.372;2023-03-20T02:11:01;5.97;;;3.75;;
49412;SDS011;35493;50.276;9.372;2023-03-20T02:13:35;10.32;;;4.70;;
49412;SDS011;35493;50.276;9.372;2023-03-20T02:16:11;7.45;;;4.50;;
49412;SDS011;35493;50.276;9.372;2023-03-20T02:19:03;7.63;;;4.18;;
49412;SDS011;35493;50.276;9.372;2023-03-20T02:21:50;6.60;;;3.97;;
49412;SDS011;35493;50.276;9.372;2023-03-20T02:25:00;7.18;;;3.90;;
49412;SDS011;35493;50.276;9.372;2023-03-20T02:28:03;6.88;;;4.18;;
49412;SDS011;35493;50.276;9.372;2023-03-20T02:31:06;7.03;;;3.92;;
49412;SDS011;35493;50.276;9.372;2023-03-20T02:34:17;6.20;;;3.53;;
49412;SDS011;35493;50.276;9.372;2023-03-20T02:37:22;7.93;;;4.30;;
49412;SDS011;35493;50.276;9.372;2023-03-20T02:40:16;7.18;;;4.15;;
49412;SDS011;35493;50.276;9.372;2023-03-20T02:42:57;7.35;;;4.18;;
49412;SDS011;35493;50.276;9.372;2023-03-20T02:45:47;9.18;;;4.35;;
49412;SDS011;35493;50.276;9.372;2023-03-20T02:48:31;8.55;;;4.55;;
49412;SDS011;35493;50.276;9.372;2023-03-20T02:51:18;7.93;;;4.40;;
49412;SDS011;35493;50.276;9.372;2023-03-20T02:53:58;9.18;;;4.10;;
49412;SDS011;35493;50.276;9.372;2023-03-20T02:56:40;7.53;;;4.22;;
49412;SDS011;35493;50.276;9.372;2023-03-20T02:59:24;8.32;;;4.32;;
49412;SDS011;35493;50.276;9.372;2023-03-20T03:02:04;10.10;;;4.47;;
49412;SDS011;35493;50.276;9.372;2023-03-20T03:04:40;10.68;;;4.45;;
49412;SDS011;35493;50.276;9.372;2023-03-20T03:07:21;8.68;;;4.22;;
49412;SDS011;35493;50.276;9.372;2023-03-20T03:10:00;8.38;;;4.80;;
49412;SDS011;35493;50.276;9.372;2023-03-20T03:12:38;8.85;;;4.78;;
49412;SDS011;35493;50.276;9.372;2023-03-20T03:15:15;7.72;;;4.90;;
49412;SDS011;35493;50.276;9.372;2023-03-20T03:17:52;7.80;;;4.45;;
49412;SDS011;35493;50.276;9.372;2023-03-20T03:20:29;11.52;;;5.00;;
49412;SDS011;35493;50.276;9.372;2023-03-20T03:23:04;7.13;;;4.07;;
49412;SDS011;35493;50.276;9.372;2023-03-20T03:25:40;8.10;;;4.65;;
49412;SDS011;35493;50.276;9.372;2023-03-20T03:28:18;7.57;;;4.32;;
49412;SDS011;35493;50.276;9.372;2023-03-20T03:30:59;7.43;;;4.28;;
49412;SDS011;35493;50.276;9.372;2023-03-20T03:33:35;10.45;;;4.20;;
49412;SDS011;35493;50.276;9.372;2023-03-20T03:36:11;6.93;;;4.50;;
49412;SDS011;35493;50.276;9.372;2023-03-20T03:38:52;8.80;;;4.05;;
49412;SDS011;35493;50.276;9.372;2023-03-20T03:41:33;9.07;;;4.07;;
49412;SDS011;35493;50.276;9.372;2023-03-20T03:44:11;7.40;;;4.03;;
49412;SDS011;35493;50.276;9.372;2023-03-20T03:46:50;7.72;;;4.03;;
49412;SDS011;35493;50.276;9.372;2023-03-20T03:49:26;7.97;;;4.75;;
49412;SDS011;35493;50.276;9.372;2023-03-20T03:52:05;7.85;;;3.95;;
49412;SDS011;35493;50.276;9.372;2023-03-20T03:54:42;8.77;;;4.00;;
49412;SDS011;35493;50.276;9.372;2023-03-20T03:57:30;7.32;;;3.88;;
49412;SDS011;35493;50.276;9.372;2023-03-20T04:00:10;7.68;;;3.83;;
49412;SDS011;35493;50.276;9.372;2023-03-20T04:02:50;7.57;;;4.05;;
49412;SDS011;35493;50.276;9.372;2023-03-20T04:05:27;7.30;;;4.00;;
49412;SDS011;35493;50.276;9.372;2023-03-20T04:08:05;6.85;;;4.15;;
49412;SDS011;35493;50.276;9.372;2023-03-20T04:10:45;6.43;;;3.95;;
49412;SDS011;35493;50.276;9.372;2023-03-20T04:13:20;7.97;;;4.03;;
49412;SDS011;35493;50.276;9.372;2023-03-20T04:15:54;9.07;;;4.10;;
49412;SDS011;35493;50.276;9.372;2023-03-20T04:18:29;7.30;;;4.05;;
49412;SDS011;35493;50.276;9.372;2023-03-20T04:21:02;7.22;;;4.30;;
49412;SDS011;35493;50.276;9.372;2023-03-20T04:23:36;7.55;;;4.07;;
49412;SDS011;35493;50.276;9.372;2023-03-20T04:26:10;8.25;;;4.50;;
49412;SDS011;35493;50.276;9.372;2023-03-20T04:28:38;7.47;;;4.60;;
49412;SDS011;35493;50.276;9.372;2023-03-20T04:31:30;8.15;;;3.95;;
49412;SDS011;35493;50.276;9.372;2023-03-20T04:34:20;8.60;;;4.03;;
49412;SDS011;35493;50.276;9.372;2023-03-20T04:37:06;8.60;;;3.63;;
49412;SDS011;35493;50.276;9.372;2023-03-20T04:40:02;9.35;;;3.90;;
49412;SDS011;35493;50.276;9.372;2023-03-20T04:42:40;6.63;;;3.70;;
49412;SDS011;35493;50.276;9.372;2023-03-20T04:45:15;6.28;;;3.25;;
49412;SDS011;35493;50.276;9.372;2023-03-20T04:47:49;7.35;;;3.67;;
49412;SDS011;35493;50.276;9.372;2023-03-20T04:50:28;6.97;;;3.88;;
49412;SDS011;35493;50.276;9.372;2023-03-20T04:55:36;6.43;;;3.30;;
49412;SDS011;35493;50.276;9.372;2023-03-20T04:58:09;7.43;;;3.88;;
49412;SDS011;35493;50.276;9.372;2023-03-20T05:00:44;6.65;;;3.63;;
49412;SDS011;35493;50.276;9.372;2023-03-20T05:03:18;6.88;;;3.75;;
49412;SDS011;35493;50.276;9.372;2023-03-20T05:05:51;6.00;;;3.50;;
49412;SDS011;35493;50.276;9.372;2023-03-20T05:08:25;6.85;;;3.90;;
49412;SDS011;35493;50.276;9.372;2023-03-20T05:10:59;7.45;;;4.18;;
49412;SDS011;35493;50.276;9.372;2023-03-20T05:13:56;7.13;;;4.07;;
49412;SDS011;35493;50.276;9.372;2023-03-20T05:16:48;8.07;;;4.25;;
49412;SDS011;35493;50.276;9.372;2023-03-20T05:19:54;8.02;;;3.90;;
49412;SDS011;35493;50.276;9.372;2023-03-20T05:22:38;8.50;;;4.13;;
49412;SDS011;35493;50.276;9.372;2023-03-20T05:25:35;6.45;;;3.65;;
49412;SDS011;35493;50.276;9.372;2023-03-20T05:28:43;5.85;;;3.42;;
49412;SDS011;35493;50.276;9.372;2023-03-20T05:31:30;8.15;;;4.70;;
49412;SDS011;35493;50.276;9.372;2023-03-20T05:34:14;6.95;;;4.07;;
49412;SDS011;35493;50.276;9.372;2023-03-20T05:36:58;8.43;;;4.78;;
49412;SDS011;35493;50.276;9.372;2023-03-20T05:39:55;8.70;;;5.07;;
49412;SDS011;35493;50.276;9.372;2023-03-20T05:42:38;8.07;;;5.50;;
49412;SDS011;35493;50.276;9.372;2023-03-20T05:45:26;7.82;;;4.82;;
49412;SDS011;35493;50.276;9.372;2023-03-20T05:48:35;8.45;;;4.93;;
49412;SDS011;35493;50.276;9.372;2023-03-20T05:51:30;9.30;;;5.30;;
49412;SDS011;35493;50.276;9.372;2023-03-20T05:54:31;9.02;;;5.50;;
49412;SDS011;35493;50.276;9.372;2023-03-20T05:57:21;10.00;;;5.50;;
49412;SDS011;35493;50.276;9.372;2023-03-20T06:00:23;9.13;;;5.25;;
49412;SDS011;35493;50.276;9.372;2023-03-20T06:03:15;7.25;;;4.90;;
49412;SDS011;35493;50.276;9.372;2023-03-20T06:05:59;9.73;;;6.10;;
49412;SDS011;35493;50.276;9.372;2023-03-20T06:08:34;10.48;;;6.05;;
49412;SDS011;35493;50.276;9.372;2023-03-20T06:11:08;10.63;;;5.85;;
49412;SDS011;35493;50.276;9.372;2023-03-20T06:13:42;9.10;;;5.78;;
49412;SDS011;35493;50.276;9.372;2023-03-20T06:16:16;12.18;;;6.60;;
49412;SDS011;35493;50.276;9.372;2023-03-20T06:18:42;11.63;;;7.38;;
49412;SDS011;35493;50.276;9.372;2023-03-20T06:21:16;12.15;;;7.43;;
49412;SDS011;35493;50.276;9.372;2023-03-20T06:23:53;10.85;;;6.93;;
49412;SDS011;35493;50.276;9.372;2023-03-20T06:26:27;11.07;;;6.88;;
49412;SDS011;35493;50.276;9.372;2023-03-20T06:29:03;12.25;;;7.35;;
49412;SDS011;35493;50.276;9.372;2023-03-20T06:31:38;11.02;;;7.28;;
49412;SDS011;35493;50.276;9.372;2023-03-20T06:34:21;12.57;;;7.05;;
49412;SDS011;35493;50.276;9.372;2023-03-20T06:36:55;14.95;;;7.10;;
49412;SDS011;35493;50.276;9.372;2023-03-20T06:39:30;13.23;;;7.38;;
49412;SDS011;35493;50.276;9.372;2023-03-20T06:42:08;12.45;;;7.53;;
49412;SDS011;35493;50.276;9.372;2023-03-20T06:44:45;14.70;;;7.95;;
49412;SDS011;35493;50.276;9.372;2023-03-20T06:47:37;13.00;;;7.40;;
49412;SDS011;35493;50.276;9.372;2023-03-20T06:50:18;12.30;;;7.85;;
49412;SDS011;35493;50.276;9.372;2023-03-20T06:52:58;12.05;;;7.95;;
49412;SDS011;35493;50.276;9.372;2023-03-20T06:55:51;11.05;;;6.93;;
49412;SDS011;35493;50.276;9.372;2023-03-20T06:58:25;13.70;;;7.93;;
49412;SDS011;35493;50.276;9.372;2023-03-20T07:00:59;12.60;;;7.10;;
49412;SDS011;35493;50.276;9.372;2023-03-20T07:03:33;10.57;;;6.78;;
49412;SDS011;35493;50.276;9.372;2023-03-20T07:06:07;11.88;;;7.68;;
49412;SDS011;35493;50.276;9.372;2023-03-20T07:08:42;12.30;;;7.45;;
49412;SDS011;35493;50.276;9.372;2023-03-20T07:11:17;13.45;;;7.88;;
49412;SDS011;35493;50.276;9.372;2023-03-20T07:13:53;13.55;;;8.48;;
49412;SDS011;35493;50.276;9.372;2023-03-20T07:19:17;12.77;;;7.20;;
49412;SDS011;35493;50.276;9.372;2023-03-20T07:21:48;15.13;;;8.32;;
49412;SDS011;35493;50.276;9.372;2023-03-20T07:24:22;13.73;;;8.82;;
49412;SDS011;35493;50.276;9.372;2023-03-20T07:26:57;16.25;;;9.13;;
49412;SDS011;35493;50.276;9.372;2023-03-20T07:29:33;15.10;;;9.60;;
49412;SDS011;35493;50.276;9.372;2023-03-20T07:32:11;14.40;;;9.43;;
49412;SDS011;35493;50.276;9.372;2023-03-20T07:34:49;14.43;;;9.40;;
49412;SDS011;35493;50.276;9.372;2023-03-20T07:37:22;16.08;;;9.65;;
49412;SDS011;35493;50.276;9.372;2023-03-20T07:40:00;14.50;;;8.75;;
49412;SDS011;35493;50.276;9.372;2023-03-20T07:43:01;15.50;;;9.52;;
49412;SDS011;35493;50.276;9.372;2023-03-20T07:46:07;15.90;;;9.57;;
49412;SDS011;35493;50.276;9.372;2023-03-20T07:48:41;16.95;;;9.20;;
49412;SDS011;35493;50.276;9.372;2023-03-20T07:51:21;14.93;;;9.02;;
49412;SDS011;35493;50.276;9.372;2023-03-20T07:53:55;16.95;;;10.00;;
49412;SDS011;35493;50.276;9.372;2023-03-20T07:56:29;16.30;;;9.80;;
49412;SDS011;35493;50.276;9.372;2023-03-20T07:59:03;16.35;;;10.13;;
49412;SDS011;35493;50.276;9.372;2023-03-20T08:01:37;16.63;;;10.70;;
49412;SDS011;35493;50.276;9.372;2023-03-20T08:04:10;17.40;;;10.98;;
49412;SDS011;35493;50.276;9.372;2023-03-20T08:06:43;18.77;;;11.18;;
49412;SDS011;35493;50.276;9.372;2023-03-20T08:09:16;15.55;;;9.52;;
49412;SDS011;35493;50.276;9.372;2023-03-20T08:11:50;19.08;;;10.80;;
49412;SDS011;35493;50.276;9.372;2023-03-20T08:14:24;18.02;;;10.73;;
49412;SDS011;35493;50.276;9.372;2023-03-20T08:16:58;17.83;;;11.55;;
49412;SDS011;35493;50.276;9.372;2023-03-20T08:19:31;20.88;;;12.75;;
49412;SDS011;35493;50.276;9.372;2023-03-20T08:22:04;19.92;;;11.90;;
49412;SDS011;35493;50.276;9.372;2023-03-20T08:24:38;21.17;;;12.57;;
49412;SDS011;35493;50.276;9.372;2023-03-20T08:27:11;19.30;;;12.15;;
49412;SDS011;35493;50.276;9.372;2023-03-20T08:29:39;22.23;;;12.52;;
49412;SDS011;35493;50.276;9.372;2023-03-20T08:32:13;23.55;;;13.00;;
49412;SDS011;35493;50.276;9.372;2023-03-20T08:34:47;20.67;;;12.52;;
49412;SDS011;35493;50.276;9.372;2023-03-20T08:37:21;20.83;;;12.38;;
49412;SDS011;35493;50.276;9.372;2023-03-20T08:39:55;20.23;;;12.18;;
49412;SDS011;35493;50.276;9.372;2023-03-20T08:42:28;20.40;;;13.27;;
49412;SDS011;35493;50.276;9.372;2023-03-20T08:45:02;19.02;;;12.05;;
49412;SDS011;35493;50.276;9.372;2023-03-20T08:47:37;18.05;;;11.43;;
49412;SDS011;35493;50.276;9.372;2023-03-20T08:50:10;21.98;;;13.32;;
49412;SDS011;35493;50.276;9.372;2023-03-20T08:52:44;21.50;;;13.13;;
49412;SDS011;35493;50.276;9.372;2023-03-20T08:55:24;21.90;;;12.45;;
49412;SDS011;35493;50.276;9.372;2023-03-20T08:57:57;24.55;;;13.25;;
49412;SDS011;35493;50.276;9.372;2023-03-20T09:00:32;25.23;;;13.90;;
49412;SDS011;35493;50.276;9.372;2023-03-20T09:03:06;25.20;;;12.45;;
49412;SDS011;35493;50.276;9.372;2023-03-20T09:05:42;24.23;;;14.93;;
49412;SDS011;35493;50.276;9.372;2023-03-20T09:08:16;26.60;;;14.38;;
49412;SDS011;35493;50.276;9.372;2023-03-20T09:10:57;23.90;;;13.35;;
49412;SDS011;35493;50.276;9.372;2023-03-20T09:13:30;27.38;;;13.95;;
49412;SDS011;35493;50.276;9.372;2023-03-20T09:16:05;24.83;;;13.90;;
49412;SDS011;35493;50.276;9.372;2023-03-20T09:18:39;27.05;;;14.38;;
49412;SDS011;35493;50.276;9.372;2023-03-20T09:21:12;25.92;;;14.32;;
49412;SDS011;35493;50.276;9.372;2023-03-20T09:23:45;28.08;;;14.73;;
49412;SDS011;35493;50.276;9.372;2023-03-20T09:26:19;26.02;;;14.27;;
49412;SDS011;35493;50.276;9.372;2023-03-20T09:28:52;24.45;;;14.00;;
49412;SDS011;35493;50.276;9.372;2023-03-20T09:31:26;28.90;;;14.88;;
49412;SDS011;35493;50.276;9.372;2023-03-20T09:34:00;29.75;;;15.30;;
49412;SDS011;35493;50.276;9.372;2023-03-20T09:36:33;29.00;;;15.15;;
49412;SDS011;35493;50.276;9.372;2023-03-20T09:39:06;27.63;;;14.48;;
49412;SDS011;35493;50.276;9.372;2023-03-20T09:41:33;27.92;;;14.88;;
49412;SDS011;35493;50.276;9.372;2023-03-20T09:44:09;23.13;;;13.80;;
49412;SDS011;35493;50.276;9.372;2023-03-20T09:49:44;23.88;;;14.30;;
49412;SDS011;35493;50.276;9.372;2023-03-20T09:52:25;24.90;;;14.82;;
49412;SDS011;35493;50.276;9.372;2023-03-20T09:55:11;25.10;;;13.90;;
49412;SDS011;35493;50.276;9.372;2023-03-20T09:57:48;22.73;;;13.35;;
49412;SDS011;35493;50.276;9.372;2023-03-20T10:00:24;20.35;;;12.30;;
49412;SDS011;35493;50.276;9.372;2023-03-20T10:03:02;22.27;;;12.35;;
49412;SDS011;35493;50.276;9.372;2023-03-20T10:05:38;20.40;;;12.05;;
49412;SDS011;35493;50.276;9.372;2023-03-20T10:08:17;21.70;;;12.68;;
49412;SDS011;35493;50.276;9.372;2023-03-20T10:10:57;20.98;;;12.68;;
49412;SDS011;35493;50.276;9.372;2023-03-20T10:13:48;20.08;;;12.63;;
49412;SDS011;35493;50.276;9.372;2023-03-20T10:16:32;19.50;;;12.52;;
49412;SDS011;35493;50.276;9.372;2023-03-20T10:19:17;21.88;;;13.23;;
49412;SDS011;35493;50.276;9.372;2023-03-20T10:21:56;21.63;;;13.70;;
49412;SDS011;35493;50.276;9.372;2023-03-20T10:24:41;20.75;;;12.45;;
49412;SDS011;35493;50.276;9.372;2023-03-20T10:27:19;25.02;;;14.23;;
49412;SDS011;35493;50.276;9.372;2023-03-20T10:29:59;23.20;;;14.75;;
49412;SDS011;35493;50.276;9.372;2023-03-20T10:32:45;19.90;;;12.60;;
49412;SDS011;35493;50.276;9.372;2023-03-20T10:35:25;23.98;;;13.70;;
49412;SDS011;35493;50.276;9.372;2023-03-20T10:38:10;23.30;;;13.77;;
49412;SDS011;35493;50.276;9.372;2023-03-20T10:40:53;21.08;;;13.02;;
49412;SDS011;35493;50.276;9.372;2023-03-20T10:43:28;22.65;;;12.75;;
49412;SDS011;35493;50.276;9.372;2023-03-20T10:46:06;21.52;;;14.23;;
49412;SDS011;35493;50.276;9.372;2023-03-20T10:48:44;26.50;;;14.32;;
49412;SDS011;35493;50.276;9.372;2023-03-20T10:51:33;26.08;;;15.02;;
49412;SDS011;35493;50.276;9.372;2023-03-20T10:54:13;28.48;;;16.75;;
49412;SDS011;35493;50.276;9.372;2023-03-20T10:56:54;25.98;;;15.57;;
49412;SDS011;35493;50.276;9.372;2023-03-20T10:59:31;22.63;;;13.30;;
49412;SDS011;35493;50.276;9.372;2023-03-20T11:02:09;22.88;;;13.80;;
49412;SDS011;35493;50.276;9.372;2023-03-20T11:04:43;21.00;;;13.50;;
49412;SDS011;35493;50.276;9.372;2023-03-20T11:07:20;22.65;;;13.02;;
49412;SDS011;35493;50.276;9.372;2023-03-20T11:10:07;22.05;;;13.52;;
49412;SDS011;35493;50.276;9.372;2023-03-20T11:12:43;24.25;;;14.25;;
49412;SDS011;35493;50.276;9.372;2023-03-20T11:15:19;22.02;;;12.63;;
49412;SDS011;35493;50.276;9.372;2023-03-20T11:17:55;22.95;;;13.63;;
49412;SDS011;35493;50.276;9.372;2023-03-20T11:20:31;20.70;;;12.63;;
49412;SDS011;35493;50.276;9.372;2023-03-20T11:23:12;22.83;;;13.32;;
49412;SDS011;35493;50.276;9.372;2023-03-20T11:25:48;21.08;;;12.75;;
49412;SDS011;35493;50.276;9.372;2023-03-20T11:28:25;21.85;;;12.85;;
49412;SDS011;35493;50.276;9.372;2023-03-20T11:31:15;22.02;;;13.48;;
49412;SDS011;35493;50.276;9.372;2023-03-20T11:34:17;24.90;;;14.45;;
49412;SDS011;35493;50.276;9.372;2023-03-20T11:36:57;24.48;;;13.80;;
49412;SDS011;35493;50.276;9.372;2023-03-20T11:39:33;21.95;;;13.60;;
49412;SDS011;35493;50.276;9.372;2023-03-20T11:42:20;23.65;;;14.30;;
49412;SDS011;35493;50.276;9.372;2023-03-20T11:44:56;26.38;;;13.75;;
49412;SDS011;35493;50.276;9.372;2023-03-20T11:47:31;22.10;;;13.77;;
49412;SDS011;35493;50.276;9.372;2023-03-20T11:50:13;22.23;;;13.55;;
49412;SDS011;35493;50.276;9.372;2023-03-20T11:52:59;24.08;;;14.48;;
49412;SDS011;35493;50.276;9.372;2023-03-20T11:55:41;23.52;;;13.93;;
49412;SDS011;35493;50.276;9.372;2023-03-20T11:58:28;26.70;;;14.77;;
49412;SDS011;35493;50.276;9.372;2023-03-20T12:01:02;25.13;;;15.50;;
49412;SDS011;35493;50.276;9.372;2023-03-20T12:03:39;26.35;;;14.25;;
49412;SDS011;35493;50.276;9.372;2023-03-20T12:06:19;26.52;;;15.40;;
49412;SDS011;35493;50.276;9.372;2023-03-20T12:08:57;26.23;;;14.40;;
49412;SDS011;35493;50.276;9.372;2023-03-20T12:11:39;22.92;;;14.10;;
49412;SDS011;35493;50.276;9.372;2023-03-20T12:14:21;24.60;;;13.98;;
49412;SDS011;35493;50.276;9.372;2023-03-20T12:17:03;19.55;;;12.32;;
49412;SDS011;35493;50.276;9.372;2023-03-20T12:19:50;24.15;;;13.07;;
49412;SDS011;35493;50.276;9.372;2023-03-20T12:22:29;20.77;;;12.30;;
49412;SDS011;35493;50.276;9.372;2023-03-20T12:25:10;22.90;;;13.20;;
49412;SDS011;35493;50.276;9.372;2023-03-20T12:27:56;22.75;;;12.32;;
49412;SDS011;35493;50.276;9.372;2023-03-20T12:30:39;23.80;;;12.80;;
49412;SDS011;35493;50.276;9.372;2023-03-20T12:33:28;19.52;;;12.18;;
49412;SDS011;35493;50.276;9.372;2023-03-20T12:36:12;22.52;;;13.52;;
49412;SDS011;35493;50.276;9.372;2023-03-20T12:38:47;24.38;;;14.05;;
49412;SDS011;35493;50.276;9.372;2023-03-20T12:41:21;24.35;;;13.55;;
49412;SDS011;35493;50.276;9.372;2023-03-20T12:44:06;24.33;;;13.73;;
49412;SDS011;35493;50.276;9.372;2023-03-20T12:46:53;22.13;;;12.65;;
49412;SDS011;35493;50.276;9.372;2023-03-20T12:49:42;21.80;;;13.10;;
49412;SDS011;35493;50.276;9.372;2023-03-20T12:52:33;21.55;;;12.73;;
49412;SDS011;35493;50.276;9.372;2023-03-20T12:55:20;21.35;;;13.00;;
49412;SDS011;35493;50.276;9.372;2023-03-20T12:58:04;18.92;;;12.15;;
49412;SDS011;35493;50.276;9.372;2023-03-20T13:00:48;20.92;;;12.48;;
49412;SDS011;35493;50.276;9.372;2023-03-20T13:06:50;21.75;;;13.15;;
49412;SDS011;35493;50.276;9.372;2023-03-20T13:09:34;21.25;;;12.70;;
49412;SDS011;35493;50.276;9.372;2023-03-20T13:12:24;20.20;;;11.27;;
49412;SDS011;35493;50.276;9.372;2023-03-20T13:15:11;19.60;;;11.20;;
49412;SDS011;35493;50.276;9.372;2023-03-20T13:17:56;18.83;;;10.82;;
49412;SDS011;35493;50.276;9.372;2023-03-20T13:20:35;17.48;;;10.65;;
49412;SDS011;35493;50.276;9.372;2023-03-20T13:23:18;17.58;;;9.50;;
49412;SDS011;35493;50.276;9.372;2023-03-20T13:26:00;15.40;;;9.40;;
49412;SDS011;35493;50.276;9.372;2023-03-20T13:28:40;15.32;;;9.57;;
49412;SDS011;35493;50.276;9.372;2023-03-20T13:31:35;15.05;;;8.90;;
49412;SDS011;35493;50.276;9.372;2023-03-20T13:34:23;13.70;;;7.97;;
49412;SDS011;35493;50.276;9.372;2023-03-20T13:37:09;14.50;;;8.52;;
49412;SDS011;35493;50.276;9.372;2023-03-20T13:39:47;14.07;;;8.38;;
49412;SDS011;35493;50.276;9.372;2023-03-20T13:42:32;12.18;;;7.43;;
49412;SDS011;35493;50.276;9.372;2023-03-20T13:45:16;12.68;;;7.43;;
49412;SDS011;35493;50.276;9.372;2023-03-20T13:48:16;13.13;;;8.23;;
49412;SDS011;35493;50.276;9.372;2023-03-20T13:51:02;10.55;;;6.53;;
49412;SDS011;35493;50.276;9.372;2023-03-20T13:54:00;14.35;;;7.35;;
49412;SDS011;35493;50.276;9.372;2023-03-20T13:56:44;11.68;;;6.70;;
49412;SDS011;35493;50.276;9.372;2023-03-20T13:59:32;11.20;;;5.75;;
49412;SDS011;35493;50.276;9.372;2023-03-20T14:02:25;9.68;;;5.93;;
49412;SDS011;35493;50.276;9.372;2023-03-20T14:05:09;10.23;;;5.82;;
49412;SDS011;35493;50.276;9.372;2023-03-20T14:07:48;10.20;;;5.97;;
49412;SDS011;35493;50.276;9.372;2023-03-20T14:10:32;9.52;;;5.72;;
49412;SDS011;35493;50.276;9.372;2023-03-20T14:13:10;9.18;;;5.53;;
49412;SDS011;35493;50.276;9.372;2023-03-20T14:15:48;7.72;;;5.00;;
49412;SDS011;35493;50.276;9.372;2023-03-20T14:18:26;8.80;;;5.32;;
49412;SDS011;35493;50.276;9.372;2023-03-20T14:21:02;7.95;;;4.85;;
49412;SDS011;35493;50.276;9.372;2023-03-20T14:23:44;10.95;;;5.25;;
49412;SDS011;35493;50.276;9.372;2023-03-20T14:26:21;9.30;;;5.22;;
49412;SDS011;35493;50.276;9.372;2023-03-20T14:28:58;9.88;;;5.82;;
49412;SDS011;35493;50.276;9.372;2023-03-20T14:31:34;9.52;;;5.88;;
49412;SDS011;35493;50.276;9.372;2023-03-20T14:34:13;10.75;;;6.70;;
49412;SDS011;35493;50.276;9.372;2023-03-20T14:36:55;12.07;;;6.88;;
49412;SDS011;35493;50.276;9.372;2023-03-20T14:39:35;12.63;;;7.25;;
49412;SDS011;35493;50.276;9.372;2023-03-20T14:42:20;10.20;;;6.18;;
49412;SDS011;35493;50.276;9.372;2023-03-20T14:48:13;10.20;;;6.07;;
49412;SDS011;35493;50.276;9.372;2023-03-20T14:54:22;9.43;;;4.95;;
49412;SDS011;35493;50.276;9.372;2023-03-20T14:57:08;8.32;;;4.50;;
49412;SDS011;35493;50.276;9.372;2023-03-20T14:59:49;6.85;;;3.35;;
49412;SDS011;35493;50.276;9.372;2023-03-20T15:02:23;5.53;;;3.55;;
49412;SDS011;35493;50.276;9.372;2023-03-20T15:04:58;6.30;;;3.17;;
49412;SDS011;35493;50.276;9.372;2023-03-20T15:07:33;5.20;;;2.72;;
49412;SDS011;35493;50.276;9.372;2023-03-20T15:10:10;4.57;;;2.67;;
49412;SDS011;35493;50.276;9.372;2023-03-20T15:12:45;5.20;;;2.15;;
49412;SDS011;35493;50.276;9.372;2023-03-20T15:15:23;6.80;;;2.70;;
49412;SDS011;35493;50.276;9.372;2023-03-20T15:18:02;4.95;;;2.33;;
49412;SDS011;35493;50.276;9.372;2023-03-20T15:20:36;5.30;;;2.38;;
49412;SDS011;35493;50.276;9.372;2023-03-20T15:23:09;4.10;;;2.28;;
49412;SDS011;35493;50.276;9.372;2023-03-20T15:25:42;6.30;;;2.63;;
49412;SDS011;35493;50.276;9.372;2023-03-20T15:28:19;4.97;;;2.30;;
49412;SDS011;35493;50.276;9.372;2023-03-20T15:30:55;4.75;;;2.40;;
49412;SDS011;35493;50.276;9.372;2023-03-20T15:33:33;6.32;;;2.80;;
49412;SDS011;35493;50.276;9.372;2023-03-20T15:36:08;4.60;;;2.40;;
49412;SDS011;35493;50.276;9.372;2023-03-20T15:38:46;5.10;;;2.53;;
49412;SDS011;35493;50.276;9.372;2023-03-20T15:41:23;4.95;;;2.33;;
49412;SDS011;35493;50.276;9.372;2023-03-20T15:44:03;5.22;;;2.55;;
49412;SDS011;35493;50.276;9.372;2023-03-20T15:46:54;4.30;;;2.42;;
49412;SDS011;35493;50.276;9.372;2023-03-20T15:49:30;5.00;;;2.75;;
49412;SDS011;35493;50.276;9.372;2023-03-20T15:52:12;6.20;;;2.58;;
49412;SDS011;35493;50.276;9.372;2023-03-20T15:54:52;5.03;;;2.33;;
49412;SDS011;35493;50.276;9.372;2023-03-20T15:57:29;5.68;;;2.80;;
49412;SDS011;35493;50.276;9.372;2023-03-20T16:00:07;5.40;;;2.35;;
49412;SDS011;35493;50.276;9.372;2023-03-20T16:02:46;5.32;;;2.20;;
49412;SDS011;35493;50.276;9.372;2023-03-20T16:05:14;4.22;;;2.20;;
49412;SDS011;35493;50.276;9.372;2023-03-20T16:07:49;5.72;;;2.00;;
49412;SDS011;35493;50.276;9.372;2023-03-20T16:10:24;6.53;;;1.98;;
49412;SDS011;35493;50.276;9.372;2023-03-20T16:13:05;4.70;;;1.95;;